Commodore Clipper — C6QQ3 — position and weather

sailwx.info

Track history (hours):
 
Tides and Currents Weather Stations Pressure Air Temp Water Temp Dewpoint Dewpoint Depression Visibility Wind Speed Wind Dir Waves Ship Positions

Commodore Clipper

Operator: Condor Marine Services

Last reported at 2017-Dec-11 17:00 UTC. Time now 2017-Dec-12 04:25 UTC.
Position N 49°27' W 002°32'.

Length 130 m; draft 5.2 m.

Type: Ship. MMSI: 308094000.

Date/timePositionNaut miles runAvg speedWind from/ knotsBaromVisibWave heightAir tempDewpointWater temp
2017-Dec-11 17:00N 49°27' W 002°32'0 0.4
2017-Dec-11 16:30N 49°27' W 002°31'5 9.4
2017-Dec-11 16:00N 49°27' W 002°24'714.9
2017-Dec-11 15:30N 49°32' W 002°15'815.2
2017-Dec-11 15:00N 49°37' W 002°07'713.5
2017-Dec-11 14:30N 49°44' W 002°03'611.9
2017-Dec-11 14:01N 49°48' W 001°57'714.0
2017-Dec-11 13:30N 49°54' W 001°51'714.7
2017-Dec-11 13:01N 49°60' W 001°44'815.2
2017-Dec-11 12:30N 50°06' W 001°38'1916.0
2017-Dec-11 11:18N 50°22' W 001°20'816.9
2017-Dec-11 10:51N 50°28' W 001°13'617.4
2017-Dec-11 10:30N 50°33' W 001°07'917.7
2017-Dec-11 10:01N 50°40' W 001°01'815.4
2017-Dec-11 09:30N 50°47' W 001°06'2 3.2
2017-Dec-11 09:00N 50°49' W 001°06'0 0.0
2017-Dec-11 08:30N 50°49' W 001°06'0 0.0
2017-Dec-11 08:00N 50°49' W 001°06'0 0.0
2017-Dec-11 07:30N 50°49' W 001°06'0 0.0
2017-Dec-11 07:00N 50°49' W 001°06'0 0.0
2017-Dec-11 06:30N 50°49' W 001°06'0 0.0
2017-Dec-11 06:00N 50°49' W 001°06'0 0.0
2017-Dec-11 05:30N 50°49' W 001°06'0 0.0
2017-Dec-11 05:00N 50°49' W 001°06'0 0.0
2017-Dec-11 04:31N 50°49' W 001°06'0 0.0
2017-Dec-11 04:00N 50°49' W 001°06'0 0.0
2017-Dec-11 03:30N 50°49' W 001°06'0 0.0
2017-Dec-11 03:00N 50°49' W 001°06'0 0.0
2017-Dec-11 02:30N 50°49' W 001°06'0 0.0
2017-Dec-11 02:00N 50°49' W 001°06'0 0.0
2017-Dec-11 01:30N 50°49' W 001°06'0 0.0
2017-Dec-11 01:00N 50°49' W 001°06'0 0.0
2017-Dec-11 00:30N 50°49' W 001°06'0 0.0
2017-Dec-11 00:00N 50°49' W 001°06'0 0.0
2017-Dec-10 23:30N 50°49' W 001°06'0 0.0
2017-Dec-10 23:00N 50°49' W 001°06'0 0.0
2017-Dec-10 22:30N 50°49' W 001°06'0 0.0
2017-Dec-10 22:00N 50°49' W 001°06'0 0.0
2017-Dec-10 21:30N 50°49' W 001°06'0 0.0
2017-Dec-10 21:00N 50°49' W 001°06'0 0.0
2017-Dec-10 20:30N 50°49' W 001°06'0 0.0
2017-Dec-10 20:00N 50°49' W 001°06'0 0.0
2017-Dec-10 19:30N 50°49' W 001°06'0 0.0
2017-Dec-10 19:00N 50°49' W 001°06'0 0.2
2017-Dec-10 18:30N 50°49' W 001°06'0 0.0
2017-Dec-10 18:00N 50°49' W 001°06'0 0.0
2017-Dec-10 17:30N 50°49' W 001°06'0 0.0
2017-Dec-10 17:00N 50°49' W 001°06'0 0.0
2017-Dec-10 16:30N 50°49' W 001°06'0 0.0
2017-Dec-10 16:00N 50°49' W 001°06'0 0.0
2017-Dec-10 15:30N 50°49' W 001°06'0 0.0
2017-Dec-10 15:00N 50°49' W 001°06'0 0.0
2017-Dec-10 14:30N 50°49' W 001°06'0 0.0
2017-Dec-10 14:00N 50°49' W 001°06'0 0.0
2017-Dec-10 13:30N 50°49' W 001°06'0 0.0
2017-Dec-10 13:00N 50°49' W 001°06'0 0.0
2017-Dec-10 12:30N 50°49' W 001°06'0 0.0
2017-Dec-10 12:00N 50°49' W 001°06'0 0.0
2017-Dec-10 11:30N 50°49' W 001°06'0 0.0
2017-Dec-10 11:00N 50°49' W 001°06'0 0.0
2017-Dec-10 10:30N 50°49' W 001°06'0 0.0
2017-Dec-10 10:00N 50°49' W 001°06'0 0.0
2017-Dec-10 09:30N 50°49' W 001°06'0 0.0
2017-Dec-10 09:00N 50°49' W 001°06'0 0.0
2017-Dec-10 08:30N 50°49' W 001°06'0 0.0
2017-Dec-10 08:01N 50°49' W 001°06'0 0.0
2017-Dec-10 07:30N 50°49' W 001°06'0 0.0
2017-Dec-10 07:00N 50°49' W 001°06'2 4.2
2017-Dec-10 06:31N 50°47' W 001°06'612.2
2017-Dec-10 06:01N 50°41' W 001°03'612.8
2017-Dec-10 05:30N 50°35' W 001°07'712.6
2017-Dec-10 04:58N 50°30' W 001°15'4816.3
2017-Dec-10 02:01N 49°50' W 001°57'018.6
2017-Dec-10 02:01N 49°50' W 001°57'1020.0
2017-Dec-10 01:30N 49°41' W 002°04'1019.4
2017-Dec-10 01:01N 49°32' W 002°10'1019.2
2017-Dec-10 00:30N 49°23' W 002°16'8 1.5
2017-Dec-09 19:09N 49°17' W 002°23'317.7
2017-Dec-09 19:01N 49°19' W 002°25'917.1
2017-Dec-09 18:31N 49°27' W 002°30'1 2.9
2017-Dec-09 18:00N 49°27' W 002°32'0 0.0
2017-Dec-09 17:30N 49°27' W 002°32'0 0.4
2017-Dec-09 17:01N 49°27' W 002°31'612.0
2017-Dec-09 16:31N 49°28' W 002°22'918.2
2017-Dec-09 16:00N 49°34' W 002°11'918.4
2017-Dec-09 15:30N 49°42' W 002°04'917.7
2017-Dec-09 15:00N 49°49' W 001°56'816.5
2017-Dec-09 14:31N 49°56' W 001°49'815.9
2017-Dec-09 14:00N 50°02' W 001°43'2315.2
2017-Dec-09 12:29N 50°21' W 001°21'815.1
2017-Dec-09 11:55N 50°28' W 001°13'614.7
2017-Dec-09 11:30N 50°33' W 001°08'714.6
2017-Dec-09 11:00N 50°39' W 001°02'713.1
2017-Dec-09 10:30N 50°46' W 001°05'3 6.5
2017-Dec-09 10:00N 50°49' W 001°06'0 0.0
2017-Dec-09 09:30N 50°49' W 001°06'0 0.0
2017-Dec-09 09:00N 50°49' W 001°06'0 0.0
2017-Dec-09 08:30N 50°49' W 001°06'0 0.0
2017-Dec-09 08:00N 50°49' W 001°06'0 0.0
2017-Dec-09 07:30N 50°49' W 001°06'1 2.3
2017-Dec-09 07:00N 50°48' W 001°07'611.9
2017-Dec-09 06:31N 50°43' W 001°02'714.3
2017-Dec-09 06:01N 50°37' W 001°08'714.2
2017-Dec-09 05:31N 50°31' W 001°14'4715.4
2017-Dec-09 02:27N 49°51' W 001°55'716.9
2017-Dec-09 02:01N 49°45' W 002°02'816.8
2017-Dec-09 01:31N 49°38' W 002°06'816.9
2017-Dec-09 01:00N 49°30' W 002°12'917.5
2017-Dec-09 00:30N 49°22' W 002°17'7 1.2
2017-Dec-08 19:07N 49°16' W 002°22'217.6
2017-Dec-08 19:00N 49°18' W 002°24'917.8
2017-Dec-08 18:31N 49°26' W 002°29'2 4.1
2017-Dec-08 18:00N 49°27' W 002°32'0 0.0
2017-Dec-08 17:31N 49°27' W 002°32'0 0.0
2017-Dec-08 17:00N 49°27' W 002°32'1 2.1
2017-Dec-08 16:30N 49°27' W 002°30'612.6
2017-Dec-08 16:01N 49°29' W 002°21'917.8
2017-Dec-08 15:31N 49°34' W 002°10'1020.0
2017-Dec-08 15:01N 49°43' W 002°03'918.6
2017-Dec-08 14:31N 49°48' W 001°51'816.2
2017-Dec-08 14:00N 49°52' W 001°41'815.3
2017-Dec-08 13:30N 49°58' W 001°33'2115.0
2017-Dec-08 12:05N 50°18' W 001°21'1114.4
2017-Dec-08 11:21N 50°28' W 001°13'513.8
2017-Dec-08 11:01N 50°32' W 001°10'714.0
2017-Dec-08 10:30N 50°37' W 001°03'714.1
2017-Dec-08 10:01N 50°44' W 001°04'5 9.1
2017-Dec-08 09:31N 50°49' W 001°06'0 0.3
2017-Dec-08 09:00N 50°49' W 001°06'0 0.0
2017-Dec-08 08:30N 50°49' W 001°06'0 0.0
2017-Dec-08 08:00N 50°49' W 001°06'0 0.0
2017-Dec-08 07:30N 50°49' W 001°06'0 0.0
2017-Dec-08 07:00N 50°49' W 001°06'0 0.0
2017-Dec-08 06:30N 50°49' W 001°06'2 3.9
2017-Dec-08 06:00N 50°47' W 001°06'612.1
2017-Dec-08 05:31N 50°41' W 001°02'713.6
2017-Dec-08 05:00N 50°36' W 001°08'510.7
2017-Dec-08 04:30N 50°31' W 001°14'4912.0
2017-Dec-08 00:24N 49°51' W 001°57'718.7
2017-Dec-08 00:01N 49°44' W 002°02'1018.8
2017-Dec-07 23:29N 49°35' W 002°08'918.4
2017-Dec-07 23:00N 49°27' W 002°14'918.6
2017-Dec-07 22:30N 49°19' W 002°19'4 1.0
2017-Dec-07 18:45N 49°15' W 002°22'418.0
2017-Dec-07 18:31N 49°19' W 002°25'917.5
2017-Dec-07 18:01N 49°27' W 002°30'1 1.8
2017-Dec-07 17:30N 49°27' W 002°32'0 0.0
2017-Dec-07 17:00N 49°27' W 002°32'0 0.9
2017-Dec-07 16:30N 49°27' W 002°31'611.9
2017-Dec-07 16:01N 49°28' W 002°22'918.2
2017-Dec-07 15:30N 49°34' W 002°11'1120.4
2017-Dec-07 14:59N 49°43' W 002°04'1019.8
2017-Dec-07 14:30N 49°51' W 001°56'917.8
2017-Dec-07 14:01N 49°58' W 001°48'3214.6
2017-Dec-07 11:47N 50°25' W 001°19'312.2
2017-Dec-07 11:30N 50°28' W 001°16'612.0
2017-Dec-07 10:59N 50°33' W 001°11'612.1
2017-Dec-07 10:30N 50°38' W 001°06'611.9
2017-Dec-07 10:01N 50°44' W 001°04'5 9.9
2017-Dec-07 09:31N 50°49' W 001°07'1 1.2
2017-Dec-07 09:00N 50°49' W 001°06'0 0.0
2017-Dec-07 08:30N 50°49' W 001°06'0 0.0
2017-Dec-07 08:00N 50°49' W 001°06'0 0.0
2017-Dec-07 07:30N 50°49' W 001°06'0 0.0
2017-Dec-07 07:00N 50°49' W 001°06'0 0.0
2017-Dec-07 06:30N 50°49' W 001°06'2 3.3
2017-Dec-07 06:01N 50°47' W 001°06'713.2
2017-Dec-07 05:31N 50°42' W 001°01'611.9
2017-Dec-07 05:01N 50°36' W 001°05'511.0
2017-Dec-07 04:31N 50°32' W 001°10'4 8.9
2017-Dec-07 04:01N 50°29' W 001°15'4612.4
2017-Dec-07 00:18N 49°51' W 001°55'619.0
2017-Dec-07 00:01N 49°46' W 002°00'1218.6
2017-Dec-06 23:20N 49°35' W 002°09'619.1
2017-Dec-06 23:01N 49°29' W 002°12'1019.4
2017-Dec-06 22:30N 49°20' W 002°18'1017.1
2017-Dec-06 21:56N 49°10' W 002°18'  
2017-Dec-04 10:30N 50°33' W 001°11'816.4
2017-Dec-04 10:00N 50°40' W 001°04'714.3
2017-Dec-04 09:31N 50°47' W 001°06'2 3.9
2017-Dec-04 09:00N 50°49' W 001°06'0 0.0
2017-Dec-04 08:30N 50°49' W 001°06'0 0.0
2017-Dec-04 08:00N 50°49' W 001°06'0 0.0
2017-Dec-04 07:30N 50°49' W 001°06'0 0.0
2017-Dec-04 07:00N 50°49' W 001°06'0 0.0
2017-Dec-04 06:30N 50°49' W 001°06'1 2.5
2017-Dec-04 06:01N 50°48' W 001°07'713.4
2017-Dec-04 05:31N 50°42' W 001°01'815.1
2017-Dec-04 05:00N 50°35' W 001°05'510.6
2017-Dec-04 04:30N 50°31' W 001°10'7 9.9
2017-Dec-04 03:47N 50°25' W 001°17'810.4
2017-Dec-04 02:58N 50°18' W 001°25'612.8
2017-Dec-04 02:30N 50°14' W 001°31'714.0
2017-Dec-04 02:01N 50°08' W 001°38'713.7
2017-Dec-04 01:31N 50°03' W 001°44'713.8
2017-Dec-04 01:00N 49°57' W 001°50'714.1
2017-Dec-04 00:30N 49°51' W 001°55'712.9
2017-Dec-04 00:00N 49°46' W 002°01'611.3
2017-Dec-03 23:30N 49°41' W 002°05'714.4
2017-Dec-03 23:01N 49°34' W 002°09'816.2
2017-Dec-03 22:30N 49°26' W 002°14'816.5
2017-Dec-03 22:01N 49°19' W 002°19'3 0.9
2017-Dec-03 18:00N 49°16' W 002°23'816.7
2017-Dec-03 17:31N 49°24' W 002°28'4 8.3
2017-Dec-03 17:00N 49°27' W 002°32'0 0.0
2017-Dec-03 16:30N 49°27' W 002°32'0 0.0
2017-Dec-03 16:00N 49°27' W 002°32'3 6.7
2017-Dec-03 15:30N 49°26' W 002°27'816.9
2017-Dec-03 15:01N 49°31' W 002°17'1213.3
2017-Dec-03 14:07N 49°40' W 002°05'215.4
2017-Dec-03 14:00N 49°41' W 002°04'816.3
2017-Dec-03 13:30N 49°48' W 001°57'917.1
2017-Dec-03 13:00N 49°54' W 001°48'1019.8
2017-Dec-03 12:31N 50°02' W 001°39'918.9
2017-Dec-03 12:01N 50°11' W 001°33'1018.8
2017-Dec-03 11:29N 50°19' W 001°25'918.5
2017-Dec-03 10:59N 50°27' W 001°18'918.5
2017-Dec-03 10:30N 50°35' W 001°10'917.7
2017-Dec-03 10:01N 50°42' W 001°02'713.3
2017-Dec-03 09:30N 50°48' W 001°07'1 1.9
2017-Dec-03 09:00N 50°49' W 001°06'0 0.0
2017-Dec-03 08:31N 50°49' W 001°06'0 0.0
2017-Dec-03 08:00N 50°49' W 001°06'0 0.0
2017-Dec-03 07:30N 50°49' W 001°06'0 0.0
2017-Dec-03 07:00N 50°49' W 001°06'3 5.9
2017-Dec-03 06:31N 50°46' W 001°05'612.4
2017-Dec-03 06:01N 50°40' W 001°00'713.7
2017-Dec-03 05:30N 50°35' W 001°06'1210.7
2017-Dec-03 04:23N 50°25' W 001°18'5 9.7
2017-Dec-03 03:52N 50°22' W 001°24'3 9.6
2017-Dec-03 03:30N 50°19' W 001°27'5 9.6
2017-Dec-03 03:00N 50°15' W 001°31'713.5
2017-Dec-03 02:30N 50°09' W 001°35'714.7
2017-Dec-03 02:00N 50°03' W 001°41'714.3
2017-Dec-03 01:30N 49°57' W 001°48'713.7
2017-Dec-03 01:00N 49°52' W 001°55'713.4
2017-Dec-03 00:31N 49°46' W 002°01'611.7
2017-Dec-02 23:57N 49°41' W 002°05'713.4
2017-Dec-02 23:28N 49°34' W 002°09'714.9
2017-Dec-02 23:00N 49°30' W 002°18'815.3
2017-Dec-02 22:31N 49°26' W 002°27'3 6.8
2017-Dec-02 22:00N 49°27' W 002°32'0 0.0
2017-Dec-02 21:30N 49°27' W 002°32'0 0.0
2017-Dec-02 21:00N 49°27' W 002°32'3 6.8
2017-Dec-02 20:31N 49°25' W 002°29'17 4.0
2017-Dec-02 16:24N 49°10' W 002°16'615.5
2017-Dec-02 16:01N 49°15' W 002°21'816.2
2017-Dec-02 15:31N 49°23' W 002°16'812.3
2017-Dec-02 14:51N 49°30' W 002°11'712.4
2017-Dec-02 14:15N 49°37' W 002°07'513.7
2017-Dec-02 13:54N 49°42' W 002°04'614.6
2017-Dec-02 13:30N 49°47' W 002°00'713.8
2017-Dec-02 13:00N 49°53' W 001°55'714.9
2017-Dec-02 12:30N 49°59' W 001°49'1019.9
2017-Dec-02 12:00N 50°07' W 001°39'1019.4
2017-Dec-02 11:30N 50°14' W 001°29'1518.2
2017-Dec-02 10:39N 50°28' W 001°18'318.7
2017-Dec-02 10:30N 50°30' W 001°15'1019.1
2017-Dec-02 10:00N 50°38' W 001°06'815.1
2017-Dec-02 09:30N 50°45' W 001°05'3 6.9
2017-Dec-02 09:00N 50°49' W 001°06'0 0.0
2017-Dec-02 08:31N 50°49' W 001°06'0 0.0
2017-Dec-02 08:00N 50°49' W 001°06'0 0.0
2017-Dec-02 07:30N 50°49' W 001°06'0 0.0
2017-Dec-02 07:00N 50°49' W 001°06'0 0.0
2017-Dec-02 06:31N 50°49' W 001°06'1 3.0
2017-Dec-02 06:01N 50°47' W 001°07'612.8
2017-Dec-02 05:31N 50°42' W 001°03'816.1
2017-Dec-02 05:00N 50°35' W 001°10'1515.8
2017-Dec-02 04:02N 50°23' W 001°26'117.4
2017-Dec-02 03:59N 50°22' W 001°27'816.9
2017-Dec-02 03:30N 50°15' W 001°32'816.3
2017-Dec-02 03:01N 50°08' W 001°38'815.5
2017-Dec-02 02:30N 50°01' W 001°44'714.9
2017-Dec-02 02:00N 49°55' W 001°50'714.4
2017-Dec-02 01:31N 49°49' W 001°57'31 7.5
2017-Dec-01 21:20N 49°27' W 002°32'1 3.0
2017-Dec-01 21:01N 49°27' W 002°30'815.4
2017-Dec-01 20:31N 49°20' W 002°26'  
Track history (hours):
 
Tides and Currents Weather Stations Pressure Air Temp Water Temp Dewpoint Dewpoint Depression Visibility Wind Speed Wind Dir Waves Ship Positions

Commodore Clipper

Operator: Condor Marine Services

Last reported at 2017-Dec-11 17:00 UTC. Time now 2017-Dec-12 04:25 UTC.
Position N 49°27' W 002°32'.

Length 130 m; draft 5.2 m.

Type: Ship. MMSI: 308094000.

Date/timePositionNaut miles runAvg speedWind from/ knotsBaromVisibWave heightAir tempDewpointWater temp
2017-Dec-11 17:00N 49°27' W 002°32'0 0.4
2017-Dec-11 16:30N 49°27' W 002°31'5 9.4
2017-Dec-11 16:00N 49°27' W 002°24'714.9
2017-Dec-11 15:30N 49°32' W 002°15'815.2
2017-Dec-11 15:00N 49°37' W 002°07'713.5
2017-Dec-11 14:30N 49°44' W 002°03'611.9
2017-Dec-11 14:01N 49°48' W 001°57'714.0
2017-Dec-11 13:30N 49°54' W 001°51'714.7
2017-Dec-11 13:01N 49°60' W 001°44'815.2
2017-Dec-11 12:30N 50°06' W 001°38'1916.0
2017-Dec-11 11:18N 50°22' W 001°20'816.9
2017-Dec-11 10:51N 50°28' W 001°13'617.4
2017-Dec-11 10:30N 50°33' W 001°07'917.7
2017-Dec-11 10:01N 50°40' W 001°01'815.4
2017-Dec-11 09:30N 50°47' W 001°06'2 3.2
2017-Dec-11 09:00N 50°49' W 001°06'0 0.0
2017-Dec-11 08:30N 50°49' W 001°06'0 0.0
2017-Dec-11 08:00N 50°49' W 001°06'0 0.0
2017-Dec-11 07:30N 50°49' W 001°06'0 0.0
2017-Dec-11 07:00N 50°49' W 001°06'0 0.0
2017-Dec-11 06:30N 50°49' W 001°06'0 0.0
2017-Dec-11 06:00N 50°49' W 001°06'0 0.0
2017-Dec-11 05:30N 50°49' W 001°06'0 0.0
2017-Dec-11 05:00N 50°49' W 001°06'0 0.0
2017-Dec-11 04:31N 50°49' W 001°06'0 0.0
2017-Dec-11 04:00N 50°49' W 001°06'0 0.0
2017-Dec-11 03:30N 50°49' W 001°06'0 0.0
2017-Dec-11 03:00N 50°49' W 001°06'0 0.0
2017-Dec-11 02:30N 50°49' W 001°06'0 0.0
2017-Dec-11 02:00N 50°49' W 001°06'0 0.0
2017-Dec-11 01:30N 50°49' W 001°06'0 0.0
2017-Dec-11 01:00N 50°49' W 001°06'0 0.0
2017-Dec-11 00:30N 50°49' W 001°06'0 0.0
2017-Dec-11 00:00N 50°49' W 001°06'0 0.0
2017-Dec-10 23:30N 50°49' W 001°06'0 0.0
2017-Dec-10 23:00N 50°49' W 001°06'0 0.0
2017-Dec-10 22:30N 50°49' W 001°06'0 0.0
2017-Dec-10 22:00N 50°49' W 001°06'0 0.0
2017-Dec-10 21:30N 50°49' W 001°06'0 0.0
2017-Dec-10 21:00N 50°49' W 001°06'0 0.0
2017-Dec-10 20:30N 50°49' W 001°06'0 0.0
2017-Dec-10 20:00N 50°49' W 001°06'0 0.0
2017-Dec-10 19:30N 50°49' W 001°06'0 0.0
2017-Dec-10 19:00N 50°49' W 001°06'0 0.2
2017-Dec-10 18:30N 50°49' W 001°06'0 0.0
2017-Dec-10 18:00N 50°49' W 001°06'0 0.0
2017-Dec-10 17:30N 50°49' W 001°06'0 0.0
2017-Dec-10 17:00N 50°49' W 001°06'0 0.0
2017-Dec-10 16:30N 50°49' W 001°06'0 0.0
2017-Dec-10 16:00N 50°49' W 001°06'0 0.0
2017-Dec-10 15:30N 50°49' W 001°06'0 0.0
2017-Dec-10 15:00N 50°49' W 001°06'0 0.0
2017-Dec-10 14:30N 50°49' W 001°06'0 0.0
2017-Dec-10 14:00N 50°49' W 001°06'0 0.0
2017-Dec-10 13:30N 50°49' W 001°06'0 0.0
2017-Dec-10 13:00N 50°49' W 001°06'0 0.0
2017-Dec-10 12:30N 50°49' W 001°06'0 0.0
2017-Dec-10 12:00N 50°49' W 001°06'0 0.0
2017-Dec-10 11:30N 50°49' W 001°06'0 0.0
2017-Dec-10 11:00N 50°49' W 001°06'0 0.0
2017-Dec-10 10:30N 50°49' W 001°06'0 0.0
2017-Dec-10 10:00N 50°49' W 001°06'0 0.0
2017-Dec-10 09:30N 50°49' W 001°06'0 0.0
2017-Dec-10 09:00N 50°49' W 001°06'0 0.0
2017-Dec-10 08:30N 50°49' W 001°06'0 0.0
2017-Dec-10 08:01N 50°49' W 001°06'0 0.0
2017-Dec-10 07:30N 50°49' W 001°06'0 0.0
2017-Dec-10 07:00N 50°49' W 001°06'2 4.2
2017-Dec-10 06:31N 50°47' W 001°06'612.2
2017-Dec-10 06:01N 50°41' W 001°03'612.8
2017-Dec-10 05:30N 50°35' W 001°07'712.6
2017-Dec-10 04:58N 50°30' W 001°15'4816.3
2017-Dec-10 02:01N 49°50' W 001°57'018.6
2017-Dec-10 02:01N 49°50' W 001°57'1020.0
2017-Dec-10 01:30N 49°41' W 002°04'1019.4
2017-Dec-10 01:01N 49°32' W 002°10'1019.2
2017-Dec-10 00:30N 49°23' W 002°16'8 1.5
2017-Dec-09 19:09N 49°17' W 002°23'317.7
2017-Dec-09 19:01N 49°19' W 002°25'917.1
2017-Dec-09 18:31N 49°27' W 002°30'1 2.9
2017-Dec-09 18:00N 49°27' W 002°32'0 0.0
2017-Dec-09 17:30N 49°27' W 002°32'0 0.4
2017-Dec-09 17:01N 49°27' W 002°31'612.0
2017-Dec-09 16:31N 49°28' W 002°22'918.2
2017-Dec-09 16:00N 49°34' W 002°11'918.4
2017-Dec-09 15:30N 49°42' W 002°04'917.7
2017-Dec-09 15:00N 49°49' W 001°56'816.5
2017-Dec-09 14:31N 49°56' W 001°49'815.9
2017-Dec-09 14:00N 50°02' W 001°43'2315.2
2017-Dec-09 12:29N 50°21' W 001°21'815.1
2017-Dec-09 11:55N 50°28' W 001°13'614.7
2017-Dec-09 11:30N 50°33' W 001°08'714.6
2017-Dec-09 11:00N 50°39' W 001°02'713.1
2017-Dec-09 10:30N 50°46' W 001°05'3 6.5
2017-Dec-09 10:00N 50°49' W 001°06'0 0.0
2017-Dec-09 09:30N 50°49' W 001°06'0 0.0
2017-Dec-09 09:00N 50°49' W 001°06'0 0.0
2017-Dec-09 08:30N 50°49' W 001°06'0 0.0
2017-Dec-09 08:00N 50°49' W 001°06'0 0.0
2017-Dec-09 07:30N 50°49' W 001°06'1 2.3
2017-Dec-09 07:00N 50°48' W 001°07'611.9
2017-Dec-09 06:31N 50°43' W 001°02'714.3
2017-Dec-09 06:01N 50°37' W 001°08'714.2
2017-Dec-09 05:31N 50°31' W 001°14'4715.4
2017-Dec-09 02:27N 49°51' W 001°55'716.9
2017-Dec-09 02:01N 49°45' W 002°02'816.8
2017-Dec-09 01:31N 49°38' W 002°06'816.9
2017-Dec-09 01:00N 49°30' W 002°12'917.5
2017-Dec-09 00:30N 49°22' W 002°17'7 1.2
2017-Dec-08 19:07N 49°16' W 002°22'217.6
2017-Dec-08 19:00N 49°18' W 002°24'917.8
2017-Dec-08 18:31N 49°26' W 002°29'2 4.1
2017-Dec-08 18:00N 49°27' W 002°32'0 0.0
2017-Dec-08 17:31N 49°27' W 002°32'0 0.0
2017-Dec-08 17:00N 49°27' W 002°32'1 2.1
2017-Dec-08 16:30N 49°27' W 002°30'612.6
2017-Dec-08 16:01N 49°29' W 002°21'917.8
2017-Dec-08 15:31N 49°34' W 002°10'1020.0
2017-Dec-08 15:01N 49°43' W 002°03'918.6
2017-Dec-08 14:31N 49°48' W 001°51'816.2
2017-Dec-08 14:00N 49°52' W 001°41'815.3
2017-Dec-08 13:30N 49°58' W 001°33'2115.0
2017-Dec-08 12:05N 50°18' W 001°21'1114.4
2017-Dec-08 11:21N 50°28' W 001°13'513.8
2017-Dec-08 11:01N 50°32' W 001°10'714.0
2017-Dec-08 10:30N 50°37' W 001°03'714.1
2017-Dec-08 10:01N 50°44' W 001°04'5 9.1
2017-Dec-08 09:31N 50°49' W 001°06'0 0.3
2017-Dec-08 09:00N 50°49' W 001°06'0 0.0
2017-Dec-08 08:30N 50°49' W 001°06'0 0.0
2017-Dec-08 08:00N 50°49' W 001°06'0 0.0
2017-Dec-08 07:30N 50°49' W 001°06'0 0.0
2017-Dec-08 07:00N 50°49' W 001°06'0 0.0
2017-Dec-08 06:30N 50°49' W 001°06'2 3.9
2017-Dec-08 06:00N 50°47' W 001°06'612.1
2017-Dec-08 05:31N 50°41' W 001°02'713.6
2017-Dec-08 05:00N 50°36' W 001°08'510.7
2017-Dec-08 04:30N 50°31' W 001°14'4912.0
2017-Dec-08 00:24N 49°51' W 001°57'718.7
2017-Dec-08 00:01N 49°44' W 002°02'1018.8
2017-Dec-07 23:29N 49°35' W 002°08'918.4
2017-Dec-07 23:00N 49°27' W 002°14'918.6
2017-Dec-07 22:30N 49°19' W 002°19'4 1.0
2017-Dec-07 18:45N 49°15' W 002°22'418.0
2017-Dec-07 18:31N 49°19' W 002°25'917.5
2017-Dec-07 18:01N 49°27' W 002°30'1 1.8
2017-Dec-07 17:30N 49°27' W 002°32'0 0.0
2017-Dec-07 17:00N 49°27' W 002°32'0 0.9
2017-Dec-07 16:30N 49°27' W 002°31'611.9
2017-Dec-07 16:01N 49°28' W 002°22'918.2
2017-Dec-07 15:30N 49°34' W 002°11'1120.4
2017-Dec-07 14:59N 49°43' W 002°04'1019.8
2017-Dec-07 14:30N 49°51' W 001°56'917.8
2017-Dec-07 14:01N 49°58' W 001°48'3214.6
2017-Dec-07 11:47N 50°25' W 001°19'312.2
2017-Dec-07 11:30N 50°28' W 001°16'612.0
2017-Dec-07 10:59N 50°33' W 001°11'612.1
2017-Dec-07 10:30N 50°38' W 001°06'611.9
2017-Dec-07 10:01N 50°44' W 001°04'5 9.9
2017-Dec-07 09:31N 50°49' W 001°07'1 1.2
2017-Dec-07 09:00N 50°49' W 001°06'0 0.0
2017-Dec-07 08:30N 50°49' W 001°06'0 0.0
2017-Dec-07 08:00N 50°49' W 001°06'0 0.0
2017-Dec-07 07:30N 50°49' W 001°06'0 0.0
2017-Dec-07 07:00N 50°49' W 001°06'0 0.0
2017-Dec-07 06:30N 50°49' W 001°06'2 3.3
2017-Dec-07 06:01N 50°47' W 001°06'713.2
2017-Dec-07 05:31N 50°42' W 001°01'611.9
2017-Dec-07 05:01N 50°36' W 001°05'511.0
2017-Dec-07 04:31N 50°32' W 001°10'4 8.9
2017-Dec-07 04:01N 50°29' W 001°15'4612.4
2017-Dec-07 00:18N 49°51' W 001°55'619.0
2017-Dec-07 00:01N 49°46' W 002°00'1218.6
2017-Dec-06 23:20N 49°35' W 002°09'619.1
2017-Dec-06 23:01N 49°29' W 002°12'1019.4
2017-Dec-06 22:30N 49°20' W 002°18'1017.1
2017-Dec-06 21:56N 49°10' W 002°18'  
2017-Dec-04 10:30N 50°33' W 001°11'816.4
2017-Dec-04 10:00N 50°40' W 001°04'714.3
2017-Dec-04 09:31N 50°47' W 001°06'2 3.9
2017-Dec-04 09:00N 50°49' W 001°06'0 0.0
2017-Dec-04 08:30N 50°49' W 001°06'0 0.0
2017-Dec-04 08:00N 50°49' W 001°06'0 0.0
2017-Dec-04 07:30N 50°49' W 001°06'0 0.0
2017-Dec-04 07:00N 50°49' W 001°06'0 0.0
2017-Dec-04 06:30N 50°49' W 001°06'1 2.5
2017-Dec-04 06:01N 50°48' W 001°07'713.4
2017-Dec-04 05:31N 50°42' W 001°01'815.1
2017-Dec-04 05:00N 50°35' W 001°05'510.6
2017-Dec-04 04:30N 50°31' W 001°10'7 9.9
2017-Dec-04 03:47N 50°25' W 001°17'810.4
2017-Dec-04 02:58N 50°18' W 001°25'612.8
2017-Dec-04 02:30N 50°14' W 001°31'714.0
2017-Dec-04 02:01N 50°08' W 001°38'713.7
2017-Dec-04 01:31N 50°03' W 001°44'713.8
2017-Dec-04 01:00N 49°57' W 001°50'714.1
2017-Dec-04 00:30N 49°51' W 001°55'712.9
2017-Dec-04 00:00N 49°46' W 002°01'611.3
2017-Dec-03 23:30N 49°41' W 002°05'714.4
2017-Dec-03 23:01N 49°34' W 002°09'816.2
2017-Dec-03 22:30N 49°26' W 002°14'816.5
2017-Dec-03 22:01N 49°19' W 002°19'3 0.9
2017-Dec-03 18:00N 49°16' W 002°23'816.7
2017-Dec-03 17:31N 49°24' W 002°28'4 8.3
2017-Dec-03 17:00N 49°27' W 002°32'0 0.0
2017-Dec-03 16:30N 49°27' W 002°32'0 0.0
2017-Dec-03 16:00N 49°27' W 002°32'3 6.7
2017-Dec-03 15:30N 49°26' W 002°27'816.9
2017-Dec-03 15:01N 49°31' W 002°17'1213.3
2017-Dec-03 14:07N 49°40' W 002°05'215.4
2017-Dec-03 14:00N 49°41' W 002°04'816.3
2017-Dec-03 13:30N 49°48' W 001°57'917.1
2017-Dec-03 13:00N 49°54' W 001°48'1019.8
2017-Dec-03 12:31N 50°02' W 001°39'918.9
2017-Dec-03 12:01N 50°11' W 001°33'1018.8
2017-Dec-03 11:29N 50°19' W 001°25'918.5
2017-Dec-03 10:59N 50°27' W 001°18'918.5
2017-Dec-03 10:30N 50°35' W 001°10'917.7
2017-Dec-03 10:01N 50°42' W 001°02'713.3
2017-Dec-03 09:30N 50°48' W 001°07'1 1.9
2017-Dec-03 09:00N 50°49' W 001°06'0 0.0
2017-Dec-03 08:31N 50°49' W 001°06'0 0.0
2017-Dec-03 08:00N 50°49' W 001°06'0 0.0
2017-Dec-03 07:30N 50°49' W 001°06'0 0.0
2017-Dec-03 07:00N 50°49' W 001°06'3 5.9
2017-Dec-03 06:31N 50°46' W 001°05'612.4
2017-Dec-03 06:01N 50°40' W 001°00'713.7
2017-Dec-03 05:30N 50°35' W 001°06'1210.7
2017-Dec-03 04:23N 50°25' W 001°18'5 9.7
2017-Dec-03 03:52N 50°22' W 001°24'3 9.6
2017-Dec-03 03:30N 50°19' W 001°27'5 9.6
2017-Dec-03 03:00N 50°15' W 001°31'713.5
2017-Dec-03 02:30N 50°09' W 001°35'714.7
2017-Dec-03 02:00N 50°03' W 001°41'714.3
2017-Dec-03 01:30N 49°57' W 001°48'713.7
2017-Dec-03 01:00N 49°52' W 001°55'713.4
2017-Dec-03 00:31N 49°46' W 002°01'611.7
2017-Dec-02 23:57N 49°41' W 002°05'713.4
2017-Dec-02 23:28N 49°34' W 002°09'714.9
2017-Dec-02 23:00N 49°30' W 002°18'815.3
2017-Dec-02 22:31N 49°26' W 002°27'3 6.8
2017-Dec-02 22:00N 49°27' W 002°32'0 0.0
2017-Dec-02 21:30N 49°27' W 002°32'0 0.0
2017-Dec-02 21:00N 49°27' W 002°32'3 6.8
2017-Dec-02 20:31N 49°25' W 002°29'17 4.0
2017-Dec-02 16:24N 49°10' W 002°16'615.5
2017-Dec-02 16:01N 49°15' W 002°21'816.2
2017-Dec-02 15:31N 49°23' W 002°16'812.3
2017-Dec-02 14:51N 49°30' W 002°11'712.4
2017-Dec-02 14:15N 49°37' W 002°07'513.7
2017-Dec-02 13:54N 49°42' W 002°04'614.6
2017-Dec-02 13:30N 49°47' W 002°00'713.8
2017-Dec-02 13:00N 49°53' W 001°55'714.9
2017-Dec-02 12:30N 49°59' W 001°49'1019.9
2017-Dec-02 12:00N 50°07' W 001°39'1019.4
2017-Dec-02 11:30N 50°14' W 001°29'1518.2
2017-Dec-02 10:39N 50°28' W 001°18'318.7
2017-Dec-02 10:30N 50°30' W 001°15'1019.1
2017-Dec-02 10:00N 50°38' W 001°06'815.1
2017-Dec-02 09:30N 50°45' W 001°05'3 6.9
2017-Dec-02 09:00N 50°49' W 001°06'0 0.0
2017-Dec-02 08:31N 50°49' W 001°06'0 0.0
2017-Dec-02 08:00N 50°49' W 001°06'0 0.0
2017-Dec-02 07:30N 50°49' W 001°06'0 0.0
2017-Dec-02 07:00N 50°49' W 001°06'0 0.0
2017-Dec-02 06:31N 50°49' W 001°06'1 3.0
2017-Dec-02 06:01N 50°47' W 001°07'612.8
2017-Dec-02 05:31N 50°42' W 001°03'816.1
2017-Dec-02 05:00N 50°35' W 001°10'1515.8
2017-Dec-02 04:02N 50°23' W 001°26'117.4
2017-Dec-02 03:59N 50°22' W 001°27'816.9
2017-Dec-02 03:30N 50°15' W 001°32'816.3
2017-Dec-02 03:01N 50°08' W 001°38'815.5
2017-Dec-02 02:30N 50°01' W 001°44'714.9
2017-Dec-02 02:00N 49°55' W 001°50'714.4
2017-Dec-02 01:31N 49°49' W 001°57'31 7.5
2017-Dec-01 21:20N 49°27' W 002°32'1 3.0
2017-Dec-01 21:01N 49°27' W 002°30'815.4
2017-Dec-01 20:31N 49°20' W 002°26'  

Dump ship's entire track history